sensor_id;sensor_type;location;lat;lon;timestamp;P1;durP1;ratioP1;P2;durP2;ratioP2
53775;SDS011;44276;49.534;6.378;2022-10-16T00:01:42;11.82;;;6.97;;
53775;SDS011;44276;49.534;6.378;2022-10-16T00:04:11;9.93;;;4.70;;
53775;SDS011;44276;49.534;6.378;2022-10-16T00:06:40;9.40;;;4.45;;
53775;SDS011;44276;49.534;6.378;2022-10-16T00:09:09;5.63;;;3.88;;
53775;SDS011;44276;49.534;6.378;2022-10-16T00:11:38;11.82;;;4.63;;
53775;SDS011;44276;49.534;6.378;2022-10-16T00:14:08;13.02;;;3.65;;
53775;SDS011;44276;49.534;6.378;2022-10-16T00:16:39;11.68;;;2.97;;
53775;SDS011;44276;49.534;6.378;2022-10-16T00:19:08;6.82;;;4.00;;
53775;SDS011;44276;49.534;6.378;2022-10-16T00:21:37;5.18;;;3.20;;
53775;SDS011;44276;49.534;6.378;2022-10-16T00:24:06;11.60;;;2.65;;
53775;SDS011;44276;49.534;6.378;2022-10-16T00:26:37;4.35;;;2.75;;
53775;SDS011;44276;49.534;6.378;2022-10-16T00:29:07;3.70;;;2.33;;
53775;SDS011;44276;49.534;6.378;2022-10-16T00:31:36;7.43;;;2.97;;
53775;SDS011;44276;49.534;6.378;2022-10-16T00:34:04;5.18;;;2.65;;
53775;SDS011;44276;49.534;6.378;2022-10-16T00:36:32;3.83;;;2.03;;
53775;SDS011;44276;49.534;6.378;2022-10-16T00:39:00;5.05;;;2.20;;
53775;SDS011;44276;49.534;6.378;2022-10-16T00:41:30;3.65;;;2.22;;
53775;SDS011;44276;49.534;6.378;2022-10-16T00:43:59;5.03;;;2.28;;
53775;SDS011;44276;49.534;6.378;2022-10-16T00:46:31;3.22;;;2.15;;
53775;SDS011;44276;49.534;6.378;2022-10-16T00:49:08;2.90;;;1.83;;
53775;SDS011;44276;49.534;6.378;2022-10-16T00:51:39;5.30;;;3.10;;
53775;SDS011;44276;49.534;6.378;2022-10-16T00:54:13;3.85;;;2.60;;
53775;SDS011;44276;49.534;6.378;2022-10-16T00:56:48;5.43;;;1.70;;
53775;SDS011;44276;49.534;6.378;2022-10-16T00:59:18;3.30;;;1.75;;
53775;SDS011;44276;49.534;6.378;2022-10-16T01:01:52;3.22;;;1.63;;
53775;SDS011;44276;49.534;6.378;2022-10-16T01:04:21;5.47;;;2.00;;
53775;SDS011;44276;49.534;6.378;2022-10-16T01:06:53;3.22;;;2.03;;
53775;SDS011;44276;49.534;6.378;2022-10-16T01:09:37;4.70;;;3.13;;
53775;SDS011;44276;49.534;6.378;2022-10-16T01:12:23;5.28;;;1.90;;
53775;SDS011;44276;49.534;6.378;2022-10-16T01:15:05;3.08;;;2.08;;
53775;SDS011;44276;49.534;6.378;2022-10-16T01:17:43;6.13;;;2.00;;
53775;SDS011;44276;49.534;6.378;2022-10-16T01:20:20;3.95;;;2.00;;
53775;SDS011;44276;49.534;6.378;2022-10-16T01:22:59;4.43;;;2.00;;
53775;SDS011;44276;49.534;6.378;2022-10-16T01:25:53;2.85;;;1.92;;
53775;SDS011;44276;49.534;6.378;2022-10-16T01:28:44;3.92;;;2.50;;
53775;SDS011;44276;49.534;6.378;2022-10-16T01:31:22;7.53;;;2.85;;
53775;SDS011;44276;49.534;6.378;2022-10-16T01:33:56;4.18;;;2.63;;
53775;SDS011;44276;49.534;6.378;2022-10-16T01:36:34;4.88;;;2.38;;
53775;SDS011;44276;49.534;6.378;2022-10-16T01:39:08;9.98;;;2.70;;
53775;SDS011;44276;49.534;6.378;2022-10-16T01:41:39;10.02;;;3.60;;
53775;SDS011;44276;49.534;6.378;2022-10-16T01:44:16;5.45;;;2.83;;
53775;SDS011;44276;49.534;6.378;2022-10-16T01:46:50;4.47;;;2.80;;
53775;SDS011;44276;49.534;6.378;2022-10-16T01:49:21;3.40;;;1.85;;
53775;SDS011;44276;49.534;6.378;2022-10-16T01:51:55;3.38;;;2.25;;
53775;SDS011;44276;49.534;6.378;2022-10-16T01:54:27;7.75;;;4.00;;
53775;SDS011;44276;49.534;6.378;2022-10-16T01:57:00;8.80;;;2.78;;
53775;SDS011;44276;49.534;6.378;2022-10-16T01:59:35;3.33;;;2.17;;
53775;SDS011;44276;49.534;6.378;2022-10-16T02:02:09;4.30;;;2.60;;
53775;SDS011;44276;49.534;6.378;2022-10-16T02:04:40;4.85;;;2.92;;
53775;SDS011;44276;49.534;6.378;2022-10-16T02:07:14;3.88;;;2.70;;
53775;SDS011;44276;49.534;6.378;2022-10-16T02:09:43;4.25;;;2.40;;
53775;SDS011;44276;49.534;6.378;2022-10-16T02:12:13;5.55;;;2.80;;
53775;SDS011;44276;49.534;6.378;2022-10-16T02:14:53;6.57;;;2.38;;
53775;SDS011;44276;49.534;6.378;2022-10-16T02:17:21;5.88;;;2.35;;
53775;SDS011;44276;49.534;6.378;2022-10-16T02:19:50;4.10;;;2.08;;
53775;SDS011;44276;49.534;6.378;2022-10-16T02:22:24;2.65;;;2.00;;
53775;SDS011;44276;49.534;6.378;2022-10-16T02:25:01;4.13;;;2.20;;
53775;SDS011;44276;49.534;6.378;2022-10-16T02:27:34;3.53;;;2.58;;
53775;SDS011;44276;49.534;6.378;2022-10-16T02:30:14;3.45;;;2.28;;
53775;SDS011;44276;49.534;6.378;2022-10-16T02:32:49;4.70;;;2.15;;
53775;SDS011;44276;49.534;6.378;2022-10-16T02:35:20;3.45;;;2.00;;
53775;SDS011;44276;49.534;6.378;2022-10-16T02:37:51;6.60;;;2.40;;
53775;SDS011;44276;49.534;6.378;2022-10-16T02:40:22;5.35;;;2.00;;
53775;SDS011;44276;49.534;6.378;2022-10-16T02:42:52;6.72;;;2.75;;
53775;SDS011;44276;49.534;6.378;2022-10-16T02:45:23;3.67;;;2.17;;
53775;SDS011;44276;49.534;6.378;2022-10-16T02:47:51;5.47;;;2.00;;
53775;SDS011;44276;49.534;6.378;2022-10-16T02:50:19;4.15;;;1.98;;
53775;SDS011;44276;49.534;6.378;2022-10-16T02:52:48;3.47;;;2.08;;
53775;SDS011;44276;49.534;6.378;2022-10-16T02:55:16;1.90;;;1.55;;
53775;SDS011;44276;49.534;6.378;2022-10-16T02:57:45;2.38;;;1.50;;
53775;SDS011;44276;49.534;6.378;2022-10-16T03:00:14;8.35;;;2.38;;
53775;SDS011;44276;49.534;6.378;2022-10-16T03:02:46;1.77;;;1.00;;
53775;SDS011;44276;49.534;6.378;2022-10-16T03:05:14;2.50;;;1.40;;
53775;SDS011;44276;49.534;6.378;2022-10-16T03:07:43;2.85;;;1.20;;
53775;SDS011;44276;49.534;6.378;2022-10-16T03:10:11;3.42;;;1.23;;
53775;SDS011;44276;49.534;6.378;2022-10-16T03:12:39;1.75;;;1.02;;
53775;SDS011;44276;49.534;6.378;2022-10-16T03:15:07;2.03;;;1.10;;
53775;SDS011;44276;49.534;6.378;2022-10-16T03:17:36;1.80;;;1.00;;
53775;SDS011;44276;49.534;6.378;2022-10-16T03:20:06;2.80;;;1.45;;
53775;SDS011;44276;49.534;6.378;2022-10-16T03:22:35;2.08;;;1.10;;
53775;SDS011;44276;49.534;6.378;2022-10-16T03:25:03;3.40;;;1.05;;
53775;SDS011;44276;49.534;6.378;2022-10-16T03:27:32;0.70;;;0.70;;
53775;SDS011;44276;49.534;6.378;2022-10-16T03:30:01;3.15;;;0.75;;
53775;SDS011;44276;49.534;6.378;2022-10-16T03:32:29;2.60;;;0.73;;
53775;SDS011;44276;49.534;6.378;2022-10-16T03:34:57;1.60;;;0.82;;
53775;SDS011;44276;49.534;6.378;2022-10-16T03:37:27;2.45;;;0.50;;
53775;SDS011;44276;49.534;6.378;2022-10-16T03:39:55;3.17;;;0.98;;
53775;SDS011;44276;49.534;6.378;2022-10-16T03:42:23;3.67;;;0.70;;
53775;SDS011;44276;49.534;6.378;2022-10-16T03:44:51;1.38;;;0.70;;
53775;SDS011;44276;49.534;6.378;2022-10-16T03:47:19;1.27;;;1.00;;
53775;SDS011;44276;49.534;6.378;2022-10-16T03:49:49;1.55;;;0.50;;
53775;SDS011;44276;49.534;6.378;2022-10-16T03:52:17;3.50;;;1.13;;
53775;SDS011;44276;49.534;6.378;2022-10-16T03:54:47;15.68;;;1.17;;
53775;SDS011;44276;49.534;6.378;2022-10-16T03:57:15;3.90;;;1.08;;
53775;SDS011;44276;49.534;6.378;2022-10-16T03:59:43;2.90;;;1.10;;
53775;SDS011;44276;49.534;6.378;2022-10-16T04:02:11;5.15;;;0.80;;
53775;SDS011;44276;49.534;6.378;2022-10-16T04:04:40;1.63;;;0.90;;
53775;SDS011;44276;49.534;6.378;2022-10-16T04:07:08;1.17;;;0.52;;
53775;SDS011;44276;49.534;6.378;2022-10-16T04:09:36;3.53;;;0.93;;
53775;SDS011;44276;49.534;6.378;2022-10-16T04:12:05;1.77;;;1.08;;
53775;SDS011;44276;49.534;6.378;2022-10-16T04:14:33;4.00;;;0.80;;
53775;SDS011;44276;49.534;6.378;2022-10-16T04:17:01;4.00;;;1.05;;
53775;SDS011;44276;49.534;6.378;2022-10-16T04:19:29;1.10;;;0.75;;
53775;SDS011;44276;49.534;6.378;2022-10-16T04:21:58;2.97;;;0.50;;
53775;SDS011;44276;49.534;6.378;2022-10-16T04:24:28;3.78;;;1.10;;
53775;SDS011;44276;49.534;6.378;2022-10-16T04:26:56;3.85;;;0.60;;
53775;SDS011;44276;49.534;6.378;2022-10-16T04:29:26;1.42;;;0.57;;
53775;SDS011;44276;49.534;6.378;2022-10-16T04:31:54;1.02;;;0.60;;
53775;SDS011;44276;49.534;6.378;2022-10-16T04:34:22;4.50;;;1.00;;
53775;SDS011;44276;49.534;6.378;2022-10-16T04:36:51;4.22;;;0.63;;
53775;SDS011;44276;49.534;6.378;2022-10-16T04:39:19;1.63;;;0.80;;
53775;SDS011;44276;49.534;6.378;2022-10-16T04:41:47;3.50;;;1.08;;
53775;SDS011;44276;49.534;6.378;2022-10-16T04:44:15;4.32;;;1.10;;
53775;SDS011;44276;49.534;6.378;2022-10-16T04:46:45;3.83;;;1.00;;
53775;SDS011;44276;49.534;6.378;2022-10-16T04:49:13;3.25;;;0.90;;
53775;SDS011;44276;49.534;6.378;2022-10-16T04:51:41;2.28;;;1.10;;
53775;SDS011;44276;49.534;6.378;2022-10-16T04:54:09;2.75;;;1.00;;
53775;SDS011;44276;49.534;6.378;2022-10-16T04:56:37;8.32;;;1.30;;
53775;SDS011;44276;49.534;6.378;2022-10-16T04:59:13;1.30;;;1.00;;
53775;SDS011;44276;49.534;6.378;2022-10-16T05:01:42;8.18;;;2.38;;
53775;SDS011;44276;49.534;6.378;2022-10-16T05:04:13;7.90;;;1.65;;
53775;SDS011;44276;49.534;6.378;2022-10-16T05:06:42;4.88;;;1.60;;
53775;SDS011;44276;49.534;6.378;2022-10-16T05:09:10;3.45;;;1.40;;
53775;SDS011;44276;49.534;6.378;2022-10-16T05:11:38;3.78;;;2.05;;
53775;SDS011;44276;49.534;6.378;2022-10-16T05:14:06;6.30;;;3.00;;
53775;SDS011;44276;49.534;6.378;2022-10-16T05:16:39;9.35;;;2.22;;
53775;SDS011;44276;49.534;6.378;2022-10-16T05:19:07;4.38;;;2.00;;
53775;SDS011;44276;49.534;6.378;2022-10-16T05:21:55;5.30;;;1.48;;
53775;SDS011;44276;49.534;6.378;2022-10-16T05:24:23;2.75;;;1.50;;
53775;SDS011;44276;49.534;6.378;2022-10-16T05:26:51;2.55;;;1.42;;
53775;SDS011;44276;49.534;6.378;2022-10-16T05:29:20;2.65;;;1.33;;
53775;SDS011;44276;49.534;6.378;2022-10-16T05:31:49;5.05;;;2.47;;
53775;SDS011;44276;49.534;6.378;2022-10-16T05:34:19;10.18;;;1.60;;
53775;SDS011;44276;49.534;6.378;2022-10-16T05:36:47;7.20;;;2.65;;
53775;SDS011;44276;49.534;6.378;2022-10-16T05:39:17;9.90;;;6.35;;
53775;SDS011;44276;49.534;6.378;2022-10-16T05:41:45;9.10;;;5.13;;
53775;SDS011;44276;49.534;6.378;2022-10-16T05:44:14;5.53;;;3.05;;
53775;SDS011;44276;49.534;6.378;2022-10-16T05:46:42;7.28;;;3.08;;
53775;SDS011;44276;49.534;6.378;2022-10-16T05:49:10;13.77;;;7.93;;
53775;SDS011;44276;49.534;6.378;2022-10-16T05:51:38;8.80;;;4.50;;
53775;SDS011;44276;49.534;6.378;2022-10-16T05:54:07;5.68;;;3.22;;
53775;SDS011;44276;49.534;6.378;2022-10-16T05:56:37;4.55;;;2.55;;
53775;SDS011;44276;49.534;6.378;2022-10-16T05:59:05;6.80;;;2.50;;
53775;SDS011;44276;49.534;6.378;2022-10-16T06:01:33;2.30;;;1.80;;
53775;SDS011;44276;49.534;6.378;2022-10-16T06:04:02;3.63;;;1.73;;
53775;SDS011;44276;49.534;6.378;2022-10-16T06:06:30;5.90;;;1.80;;
53775;SDS011;44276;49.534;6.378;2022-10-16T06:08:58;5.93;;;1.90;;
53775;SDS011;44276;49.534;6.378;2022-10-16T06:11:27;5.88;;;2.28;;
53775;SDS011;44276;49.534;6.378;2022-10-16T06:13:59;4.50;;;1.92;;
53775;SDS011;44276;49.534;6.378;2022-10-16T06:16:32;4.82;;;1.95;;
53775;SDS011;44276;49.534;6.378;2022-10-16T06:19:02;3.33;;;1.67;;
53775;SDS011;44276;49.534;6.378;2022-10-16T06:21:32;6.40;;;2.25;;
53775;SDS011;44276;49.534;6.378;2022-10-16T06:24:00;17.20;;;7.43;;
53775;SDS011;44276;49.534;6.378;2022-10-16T06:26:29;7.10;;;4.13;;
53775;SDS011;44276;49.534;6.378;2022-10-16T06:29:00;10.20;;;3.45;;
53775;SDS011;44276;49.534;6.378;2022-10-16T06:31:29;7.72;;;3.42;;
53775;SDS011;44276;49.534;6.378;2022-10-16T06:33:59;8.55;;;3.13;;
53775;SDS011;44276;49.534;6.378;2022-10-16T06:36:30;8.60;;;2.88;;
53775;SDS011;44276;49.534;6.378;2022-10-16T06:38:58;7.95;;;2.85;;
53775;SDS011;44276;49.534;6.378;2022-10-16T06:41:26;6.88;;;2.65;;
53775;SDS011;44276;49.534;6.378;2022-10-16T06:43:54;7.88;;;3.17;;
53775;SDS011;44276;49.534;6.378;2022-10-16T06:46:24;9.52;;;2.80;;
53775;SDS011;44276;49.534;6.378;2022-10-16T06:48:54;11.18;;;7.85;;
53775;SDS011;44276;49.534;6.378;2022-10-16T06:51:22;11.75;;;8.45;;
53775;SDS011;44276;49.534;6.378;2022-10-16T06:53:53;13.02;;;10.10;;
53775;SDS011;44276;49.534;6.378;2022-10-16T06:56:29;18.00;;;11.38;;
53775;SDS011;44276;49.534;6.378;2022-10-16T06:58:59;11.07;;;6.15;;
53775;SDS011;44276;49.534;6.378;2022-10-16T07:01:30;10.45;;;4.28;;
53775;SDS011;44276;49.534;6.378;2022-10-16T07:04:00;7.65;;;5.10;;
53775;SDS011;44276;49.534;6.378;2022-10-16T07:06:30;7.35;;;3.80;;
53775;SDS011;44276;49.534;6.378;2022-10-16T07:09:01;6.82;;;4.05;;
53775;SDS011;44276;49.534;6.378;2022-10-16T07:11:32;5.45;;;3.75;;
53775;SDS011;44276;49.534;6.378;2022-10-16T07:14:01;7.55;;;3.65;;
53775;SDS011;44276;49.534;6.378;2022-10-16T07:16:32;7.15;;;3.45;;
53775;SDS011;44276;49.534;6.378;2022-10-16T07:19:01;6.72;;;3.67;;
53775;SDS011;44276;49.534;6.378;2022-10-16T07:21:31;9.48;;;7.38;;
53775;SDS011;44276;49.534;6.378;2022-10-16T07:24:03;11.40;;;10.07;;
53775;SDS011;44276;49.534;6.378;2022-10-16T07:26:34;8.02;;;4.30;;
53775;SDS011;44276;49.534;6.378;2022-10-16T07:29:06;6.47;;;3.88;;
53775;SDS011;44276;49.534;6.378;2022-10-16T07:31:41;2.92;;;2.13;;
53775;SDS011;44276;49.534;6.378;2022-10-16T07:34:10;4.57;;;1.60;;
53775;SDS011;44276;49.534;6.378;2022-10-16T07:36:39;2.55;;;2.35;;
53775;SDS011;44276;49.534;6.378;2022-10-16T07:39:12;3.58;;;1.67;;
53775;SDS011;44276;49.534;6.378;2022-10-16T07:41:40;3.17;;;1.83;;
53775;SDS011;44276;49.534;6.378;2022-10-16T07:44:08;3.72;;;1.55;;
53775;SDS011;44276;49.534;6.378;2022-10-16T07:46:36;8.10;;;1.73;;
53775;SDS011;44276;49.534;6.378;2022-10-16T07:49:06;4.28;;;1.58;;
53775;SDS011;44276;49.534;6.378;2022-10-16T07:51:35;2.35;;;1.50;;
53775;SDS011;44276;49.534;6.378;2022-10-16T07:54:04;6.55;;;1.52;;
53775;SDS011;44276;49.534;6.378;2022-10-16T07:56:32;1.42;;;1.05;;
53775;SDS011;44276;49.534;6.378;2022-10-16T07:59:03;1.63;;;1.10;;
53775;SDS011;44276;49.534;6.378;2022-10-16T08:01:31;4.38;;;2.33;;
53775;SDS011;44276;49.534;6.378;2022-10-16T08:04:00;1.40;;;1.10;;
53775;SDS011;44276;49.534;6.378;2022-10-16T08:06:29;6.18;;;3.47;;
53775;SDS011;44276;49.534;6.378;2022-10-16T08:09:04;3.60;;;2.20;;
53775;SDS011;44276;49.534;6.378;2022-10-16T08:11:33;5.85;;;1.50;;
53775;SDS011;44276;49.534;6.378;2022-10-16T08:14:01;2.75;;;2.33;;
53775;SDS011;44276;49.534;6.378;2022-10-16T08:16:29;3.38;;;1.80;;
53775;SDS011;44276;49.534;6.378;2022-10-16T08:18:57;18.90;;;3.33;;
53775;SDS011;44276;49.534;6.378;2022-10-16T08:21:25;4.38;;;1.70;;
53775;SDS011;44276;49.534;6.378;2022-10-16T08:23:56;2.70;;;0.90;;
53775;SDS011;44276;49.534;6.378;2022-10-16T08:26:25;1.85;;;1.10;;
53775;SDS011;44276;49.534;6.378;2022-10-16T08:28:54;3.50;;;1.40;;
53775;SDS011;44276;49.534;6.378;2022-10-16T08:31:23;3.65;;;1.95;;
53775;SDS011;44276;49.534;6.378;2022-10-16T08:33:53;2.45;;;1.85;;
53775;SDS011;44276;49.534;6.378;2022-10-16T08:36:21;2.28;;;1.10;;
53775;SDS011;44276;49.534;6.378;2022-10-16T08:38:49;1.38;;;1.10;;
53775;SDS011;44276;49.534;6.378;2022-10-16T08:41:23;1.27;;;0.82;;
53775;SDS011;44276;49.534;6.378;2022-10-16T08:44:47;8.23;;;2.78;;
53775;SDS011;44276;49.534;6.378;2022-10-16T08:47:41;4.43;;;1.03;;
53775;SDS011;44276;49.534;6.378;2022-10-16T08:50:23;6.03;;;1.00;;
53775;SDS011;44276;49.534;6.378;2022-10-16T08:52:54;3.53;;;1.15;;
53775;SDS011;44276;49.534;6.378;2022-10-16T08:55:31;3.28;;;1.20;;
53775;SDS011;44276;49.534;6.378;2022-10-16T08:58:12;6.82;;;1.60;;
53775;SDS011;44276;49.534;6.378;2022-10-16T09:00:42;3.60;;;1.55;;
53775;SDS011;44276;49.534;6.378;2022-10-16T09:03:17;2.40;;;0.95;;
53775;SDS011;44276;49.534;6.378;2022-10-16T09:06:04;6.82;;;3.15;;
53775;SDS011;44276;49.534;6.378;2022-10-16T09:08:59;4.28;;;1.42;;
53775;SDS011;44276;49.534;6.378;2022-10-16T09:11:51;7.85;;;3.83;;
53775;SDS011;44276;49.534;6.378;2022-10-16T09:14:40;2.28;;;1.08;;
53775;SDS011;44276;49.534;6.378;2022-10-16T09:17:40;1.27;;;0.70;;
53775;SDS011;44276;49.534;6.378;2022-10-16T09:20:30;2.90;;;0.85;;
53775;SDS011;44276;49.534;6.378;2022-10-16T09:23:13;3.28;;;1.75;;
53775;SDS011;44276;49.534;6.378;2022-10-16T09:25:45;1.60;;;0.65;;
53775;SDS011;44276;49.534;6.378;2022-10-16T09:28:17;3.88;;;2.47;;
53775;SDS011;44276;49.534;6.378;2022-10-16T09:30:48;3.17;;;1.00;;
53775;SDS011;44276;49.534;6.378;2022-10-16T09:33:18;2.28;;;0.40;;
53775;SDS011;44276;49.534;6.378;2022-10-16T09:35:53;3.25;;;1.20;;
53775;SDS011;44276;49.534;6.378;2022-10-16T09:38:29;1.80;;;0.90;;
53775;SDS011;44276;49.534;6.378;2022-10-16T09:41:00;4.53;;;1.63;;
53775;SDS011;44276;49.534;6.378;2022-10-16T09:43:32;5.90;;;3.35;;
53775;SDS011;44276;49.534;6.378;2022-10-16T09:46:28;1.50;;;1.38;;
53775;SDS011;44276;49.534;6.378;2022-10-16T09:49:03;3.05;;;2.22;;
53775;SDS011;44276;49.534;6.378;2022-10-16T09:51:46;2.78;;;1.83;;
53775;SDS011;44276;49.534;6.378;2022-10-16T09:54:15;1.27;;;0.63;;
53775;SDS011;44276;49.534;6.378;2022-10-16T09:56:46;2.95;;;1.20;;
53775;SDS011;44276;49.534;6.378;2022-10-16T09:59:19;2.50;;;0.82;;
53775;SDS011;44276;49.534;6.378;2022-10-16T10:01:54;3.08;;;1.33;;
53775;SDS011;44276;49.534;6.378;2022-10-16T10:04:25;2.20;;;0.88;;
53775;SDS011;44276;49.534;6.378;2022-10-16T10:07:07;3.50;;;1.15;;
53775;SDS011;44276;49.534;6.378;2022-10-16T10:09:48;2.95;;;1.60;;
53775;SDS011;44276;49.534;6.378;2022-10-16T10:12:17;8.10;;;2.90;;
53775;SDS011;44276;49.534;6.378;2022-10-16T10:14:53;2.95;;;1.38;;
53775;SDS011;44276;49.534;6.378;2022-10-16T10:17:28;2.47;;;1.30;;
53775;SDS011;44276;49.534;6.378;2022-10-16T10:19:58;1.90;;;1.38;;
53775;SDS011;44276;49.534;6.378;2022-10-16T10:22:43;3.50;;;1.95;;
53775;SDS011;44276;49.534;6.378;2022-10-16T10:25:19;2.75;;;1.02;;
53775;SDS011;44276;49.534;6.378;2022-10-16T10:31:20;10.45;;;2.78;;
53775;SDS011;44276;49.534;6.378;2022-10-16T10:33:59;4.93;;;2.30;;
53775;SDS011;44276;49.534;6.378;2022-10-16T10:36:48;6.20;;;1.73;;
53775;SDS011;44276;49.534;6.378;2022-10-16T10:39:30;2.10;;;1.02;;
53775;SDS011;44276;49.534;6.378;2022-10-16T10:42:15;4.70;;;0.88;;
53775;SDS011;44276;49.534;6.378;2022-10-16T10:45:05;3.35;;;1.52;;
53775;SDS011;44276;49.534;6.378;2022-10-16T10:47:47;2.08;;;1.27;;
53775;SDS011;44276;49.534;6.378;2022-10-16T10:50:47;2.17;;;1.20;;
53775;SDS011;44276;49.534;6.378;2022-10-16T10:53:27;3.22;;;0.88;;
53775;SDS011;44276;49.534;6.378;2022-10-16T10:56:11;4.15;;;1.80;;
53775;SDS011;44276;49.534;6.378;2022-10-16T10:59:03;4.82;;;1.35;;
53775;SDS011;44276;49.534;6.378;2022-10-16T11:01:56;3.72;;;1.40;;
53775;SDS011;44276;49.534;6.378;2022-10-16T11:07:47;3.30;;;1.38;;
53775;SDS011;44276;49.534;6.378;2022-10-16T11:10:23;3.60;;;2.13;;
53775;SDS011;44276;49.534;6.378;2022-10-16T11:12:57;6.55;;;1.70;;
53775;SDS011;44276;49.534;6.378;2022-10-16T11:15:39;4.63;;;1.75;;
53775;SDS011;44276;49.534;6.378;2022-10-16T11:18:11;3.00;;;2.20;;
53775;SDS011;44276;49.534;6.378;2022-10-16T11:20:47;6.05;;;1.88;;
53775;SDS011;44276;49.534;6.378;2022-10-16T11:23:23;3.85;;;2.20;;
53775;SDS011;44276;49.534;6.378;2022-10-16T11:25:59;3.60;;;1.85;;
53775;SDS011;44276;49.534;6.378;2022-10-16T11:28:37;3.75;;;2.53;;
53775;SDS011;44276;49.534;6.378;2022-10-16T11:31:38;3.60;;;2.13;;
53775;SDS011;44276;49.534;6.378;2022-10-16T11:34:17;10.57;;;3.08;;
53775;SDS011;44276;49.534;6.378;2022-10-16T11:36:53;6.93;;;2.58;;
53775;SDS011;44276;49.534;6.378;2022-10-16T11:39:30;10.32;;;2.65;;
53775;SDS011;44276;49.534;6.378;2022-10-16T11:42:01;5.50;;;3.08;;
53775;SDS011;44276;49.534;6.378;2022-10-16T11:44:41;5.32;;;3.40;;
53775;SDS011;44276;49.534;6.378;2022-10-16T11:47:26;4.43;;;2.95;;
53775;SDS011;44276;49.534;6.378;2022-10-16T11:50:23;4.78;;;3.03;;
53775;SDS011;44276;49.534;6.378;2022-10-16T11:53:00;4.25;;;2.58;;
53775;SDS011;44276;49.534;6.378;2022-10-16T11:55:42;6.88;;;3.03;;
53775;SDS011;44276;49.534;6.378;2022-10-16T11:58:16;9.13;;;2.88;;
53775;SDS011;44276;49.534;6.378;2022-10-16T12:00:56;6.45;;;3.00;;
53775;SDS011;44276;49.534;6.378;2022-10-16T12:03:39;7.80;;;2.92;;
53775;SDS011;44276;49.534;6.378;2022-10-16T12:06:21;6.07;;;2.47;;
53775;SDS011;44276;49.534;6.378;2022-10-16T12:09:01;6.03;;;3.42;;
53775;SDS011;44276;49.534;6.378;2022-10-16T12:11:33;8.20;;;3.45;;
53775;SDS011;44276;49.534;6.378;2022-10-16T12:14:06;8.77;;;3.90;;
53775;SDS011;44276;49.534;6.378;2022-10-16T12:16:51;6.47;;;4.53;;
53775;SDS011;44276;49.534;6.378;2022-10-16T12:19:22;16.30;;;6.80;;
53775;SDS011;44276;49.534;6.378;2022-10-16T12:21:54;7.72;;;4.30;;
53775;SDS011;44276;49.534;6.378;2022-10-16T12:24:31;5.53;;;3.20;;
53775;SDS011;44276;49.534;6.378;2022-10-16T12:27:17;3.80;;;2.42;;
53775;SDS011;44276;49.534;6.378;2022-10-16T12:29:54;4.57;;;3.05;;
53775;SDS011;44276;49.534;6.378;2022-10-16T12:32:30;3.25;;;2.28;;
53775;SDS011;44276;49.534;6.378;2022-10-16T12:35:18;6.60;;;2.72;;
53775;SDS011;44276;49.534;6.378;2022-10-16T12:37:49;5.00;;;2.78;;
53775;SDS011;44276;49.534;6.378;2022-10-16T12:40:29;3.83;;;2.28;;
53775;SDS011;44276;49.534;6.378;2022-10-16T12:43:12;6.57;;;2.70;;
53775;SDS011;44276;49.534;6.378;2022-10-16T12:46:02;5.97;;;3.47;;
53775;SDS011;44276;49.534;6.378;2022-10-16T12:48:48;6.50;;;3.40;;
53775;SDS011;44276;49.534;6.378;2022-10-16T12:51:34;3.60;;;2.30;;
53775;SDS011;44276;49.534;6.378;2022-10-16T12:54:09;3.22;;;2.65;;
53775;SDS011;44276;49.534;6.378;2022-10-16T12:56:45;4.40;;;3.03;;
53775;SDS011;44276;49.534;6.378;2022-10-16T12:59:31;7.05;;;4.35;;
53775;SDS011;44276;49.534;6.378;2022-10-16T13:02:26;5.10;;;2.42;;
53775;SDS011;44276;49.534;6.378;2022-10-16T13:05:48;2.75;;;2.03;;
53775;SDS011;44276;49.534;6.378;2022-10-16T13:08:40;3.53;;;2.75;;
53775;SDS011;44276;49.534;6.378;2022-10-16T13:11:32;5.43;;;2.45;;
53775;SDS011;44276;49.534;6.378;2022-10-16T13:14:41;3.05;;;2.28;;
53775;SDS011;44276;49.534;6.378;2022-10-16T13:17:34;5.68;;;2.20;;
53775;SDS011;44276;49.534;6.378;2022-10-16T13:20:15;2.22;;;1.88;;
53775;SDS011;44276;49.534;6.378;2022-10-16T13:22:54;3.33;;;2.05;;
53775;SDS011;44276;49.534;6.378;2022-10-16T13:25:39;2.33;;;2.10;;
53775;SDS011;44276;49.534;6.378;2022-10-16T13:28:28;3.25;;;2.22;;
53775;SDS011;44276;49.534;6.378;2022-10-16T13:31:02;3.63;;;2.63;;
53775;SDS011;44276;49.534;6.378;2022-10-16T13:33:32;5.15;;;2.50;;
53775;SDS011;44276;49.534;6.378;2022-10-16T13:36:03;3.75;;;2.88;;
53775;SDS011;44276;49.534;6.378;2022-10-16T13:38:34;6.32;;;2.92;;
53775;SDS011;44276;49.534;6.378;2022-10-16T13:41:04;10.52;;;2.78;;
53775;SDS011;44276;49.534;6.378;2022-10-16T13:43:43;5.43;;;2.67;;
53775;SDS011;44276;49.534;6.378;2022-10-16T13:46:19;5.70;;;2.63;;
53775;SDS011;44276;49.534;6.378;2022-10-16T13:48:56;4.57;;;2.60;;
53775;SDS011;44276;49.534;6.378;2022-10-16T13:51:25;5.28;;;2.90;;
53775;SDS011;44276;49.534;6.378;2022-10-16T13:53:55;6.68;;;2.75;;
53775;SDS011;44276;49.534;6.378;2022-10-16T13:56:25;4.15;;;2.88;;
53775;SDS011;44276;49.534;6.378;2022-10-16T13:58:59;6.38;;;2.88;;
53775;SDS011;44276;49.534;6.378;2022-10-16T14:01:31;6.28;;;3.65;;
53775;SDS011;44276;49.534;6.378;2022-10-16T14:04:08;5.22;;;2.83;;
53775;SDS011;44276;49.534;6.378;2022-10-16T14:06:41;3.55;;;2.65;;
53775;SDS011;44276;49.534;6.378;2022-10-16T14:09:14;4.47;;;2.72;;
53775;SDS011;44276;49.534;6.378;2022-10-16T14:11:53;3.00;;;2.30;;
53775;SDS011;44276;49.534;6.378;2022-10-16T14:14:26;3.65;;;2.03;;
53775;SDS011;44276;49.534;6.378;2022-10-16T14:17:04;3.13;;;2.38;;
53775;SDS011;44276;49.534;6.378;2022-10-16T14:19:32;3.20;;;2.03;;
53775;SDS011;44276;49.534;6.378;2022-10-16T14:22:01;3.47;;;2.33;;
53775;SDS011;44276;49.534;6.378;2022-10-16T14:24:31;5.68;;;2.28;;
53775;SDS011;44276;49.534;6.378;2022-10-16T14:27:02;4.57;;;1.95;;
53775;SDS011;44276;49.534;6.378;2022-10-16T14:30:03;3.17;;;1.90;;
53775;SDS011;44276;49.534;6.378;2022-10-16T14:32:54;3.60;;;2.90;;
53775;SDS011;44276;49.534;6.378;2022-10-16T14:35:26;2.85;;;1.90;;
53775;SDS011;44276;49.534;6.378;2022-10-16T14:37:58;5.22;;;2.10;;
53775;SDS011;44276;49.534;6.378;2022-10-16T14:40:29;4.50;;;3.03;;
53775;SDS011;44276;49.534;6.378;2022-10-16T14:43:00;4.05;;;2.15;;
53775;SDS011;44276;49.534;6.378;2022-10-16T14:45:32;17.38;;;8.38;;
53775;SDS011;44276;49.534;6.378;2022-10-16T14:48:05;3.85;;;3.00;;
53775;SDS011;44276;49.534;6.378;2022-10-16T14:50:45;4.43;;;2.20;;
53775;SDS011;44276;49.534;6.378;2022-10-16T14:53:14;10.60;;;3.80;;
53775;SDS011;44276;49.534;6.378;2022-10-16T14:55:42;26.45;;;12.80;;
53775;SDS011;44276;49.534;6.378;2022-10-16T14:58:13;29.33;;;14.57;;
53775;SDS011;44276;49.534;6.378;2022-10-16T15:00:45;43.53;;;20.45;;
53775;SDS011;44276;49.534;6.378;2022-10-16T15:03:15;8.98;;;4.93;;
53775;SDS011;44276;49.534;6.378;2022-10-16T15:05:44;16.10;;;6.72;;
53775;SDS011;44276;49.534;6.378;2022-10-16T15:08:12;16.50;;;7.88;;
53775;SDS011;44276;49.534;6.378;2022-10-16T15:10:41;8.07;;;5.07;;
53775;SDS011;44276;49.534;6.378;2022-10-16T15:13:11;3.58;;;3.00;;
53775;SDS011;44276;49.534;6.378;2022-10-16T15:15:42;9.98;;;5.45;;
53775;SDS011;44276;49.534;6.378;2022-10-16T15:18:12;3.63;;;2.70;;
53775;SDS011;44276;49.534;6.378;2022-10-16T15:20:48;4.80;;;2.58;;
53775;SDS011;44276;49.534;6.378;2022-10-16T15:23:18;6.72;;;3.63;;
53775;SDS011;44276;49.534;6.378;2022-10-16T15:25:49;6.15;;;3.13;;
53775;SDS011;44276;49.534;6.378;2022-10-16T15:28:19;6.63;;;3.97;;
53775;SDS011;44276;49.534;6.378;2022-10-16T15:30:50;5.00;;;3.63;;
53775;SDS011;44276;49.534;6.378;2022-10-16T15:33:21;10.65;;;4.78;;